Time;durP1;ratioP1;P1;durP2;ratioP2;P2;SDS_P1;SDS_P2;PMS_P1;PMS_P2;Temp;Humidity;BMP_temperature;BMP_pressure;BME280_temperature;BME280_humidity;BME280_pressure;Samples;Min_cycle;Max_cycle;Signal;HPM_P1;HPM_P2
2021/05/04 00:02:06;;;;;;;14.88;13.32;;;;;;;6.07;78.14;100066.41;4992099;28;20038;-79
2021/05/04 00:04:32;;;;;;;15.52;13.20;;;;;;;6.06;78.30;100070.03;4974568;28;20046;-79
2021/05/04 00:06:57;;;;;;;15.75;14.15;;;;;;;6.06;78.10;100064.69;5004574;28;20485;-79
2021/05/04 00:09:23;;;;;;;18.20;16.02;;;;;;;6.03;78.11;100044.47;5011641;28;20072;-79
2021/05/04 00:11:49;;;;;;;16.48;14.80;;;;;;;6.03;77.53;100047.13;4993687;28;20061;-79
2021/05/04 00:14:15;;;;;;;17.67;15.85;;;;;;;6.05;77.53;100039.00;4993655;28;20053;-79
2021/05/04 00:16:41;;;;;;;16.88;15.15;;;;;;;6.04;77.54;100031.97;5000809;28;20042;-79
2021/05/04 00:19:06;;;;;;;18.08;16.17;;;;;;;6.06;77.43;100022.00;4991703;28;20035;-79
2021/05/04 00:21:32;;;;;;;17.45;15.55;;;;;;;6.10;77.53;100012.78;5003483;28;20022;-79
2021/05/04 00:23:57;;;;;;;17.80;16.00;;;;;;;6.10;77.08;100005.63;5003787;28;20041;-79
2021/05/04 00:26:23;;;;;;;19.50;17.38;;;;;;;6.07;77.77;99995.19;4998637;28;20037;-78
2021/05/04 00:28:48;;;;;;;19.00;16.63;;;;;;;6.08;76.98;99990.69;5011170;28;20038;-79
2021/05/04 00:31:14;;;;;;;18.67;16.67;;;;;;;6.07;76.93;99981.84;4991596;28;20113;-80
2021/05/04 00:33:40;;;;;;;21.70;17.52;;;;;;;6.08;77.06;99972.84;4994013;28;20033;-80
2021/05/04 00:36:05;;;;;;;19.05;17.15;;;;;;;6.05;77.23;99959.75;5004641;28;20080;-80
2021/05/04 00:38:31;;;;;;;21.30;17.63;;;;;;;6.09;77.09;99963.88;4993551;28;20041;-80
2021/05/04 00:40:56;;;;;;;27.55;18.40;;;;;;;6.11;76.79;99947.72;4993075;28;20474;-80
2021/05/04 00:43:27;;;;;;;19.92;17.48;;;;;;;6.10;76.82;99944.22;5011151;28;20112;-80
2021/05/04 00:45:54;;;;;;;20.88;17.52;;;;;;;6.14;76.76;99928.78;4989537;28;20132;-80
2021/05/04 00:48:19;;;;;;;19.25;17.25;;;;;;;6.15;76.49;99926.00;4991478;28;20046;-80
2021/05/04 00:50:45;;;;;;;20.38;18.20;;;;;;;6.16;76.65;99913.50;5004343;28;20110;-79
2021/05/04 00:53:11;;;;;;;20.30;18.17;;;;;;;6.17;76.34;99909.84;5010799;28;20590;-79
2021/05/04 00:55:37;;;;;;;22.35;19.95;;;;;;;6.17;76.73;99907.19;4989968;28;20068;-79
2021/05/04 00:58:03;;;;;;;21.02;18.85;;;;;;;6.18;76.60;99901.72;4991122;28;20057;-79
2021/05/04 01:00:29;;;;;;;22.95;18.77;;;;;;;6.19;76.39;99899.91;4990790;28;20426;-79
2021/05/04 01:02:58;;;;;;;21.73;19.48;;;;;;;6.16;76.87;99876.13;4991520;28;20504;-79
2021/05/04 01:05:25;;;;;;;21.77;19.55;;;;;;;6.15;77.05;99882.41;5006382;28;20037;-79
2021/05/04 01:07:50;;;;;;;23.38;20.63;;;;;;;6.14;77.06;99876.25;4992478;28;20025;-79
2021/05/04 01:10:16;;;;;;;22.45;20.23;;;;;;;6.15;77.09;99869.06;4992549;28;20064;-79
2021/05/04 01:12:41;;;;;;;22.75;20.45;;;;;;;6.13;77.79;99865.69;4992476;28;20486;-79
2021/05/04 01:15:07;;;;;;;22.60;20.20;;;;;;;6.08;77.79;99855.41;5016107;28;20501;-79
2021/05/04 01:17:32;;;;;;;23.25;20.95;;;;;;;6.06;78.33;99846.69;4976889;28;20125;-79
2021/05/04 01:19:58;;;;;;;23.83;21.33;;;;;;;6.02;78.90;99850.56;4973089;28;20041;-79
2021/05/04 01:22:23;;;;;;;26.65;23.05;;;;;;;5.94;79.80;99829.03;4990171;28;20068;-79
2021/05/04 01:24:48;;;;;;;23.33;20.85;;;;;;;5.91;80.59;99832.78;5010402;28;20037;-79
2021/05/04 01:27:14;;;;;;;26.45;23.73;;;;;;;5.81;81.36;99821.16;4996749;28;20077;-79
2021/05/04 01:29:40;;;;;;;28.48;25.25;;;;;;;5.75;83.11;99819.88;4990518;28;20034;-79
2021/05/04 01:32:07;;;;;;;28.55;24.38;;;;;;;5.72;82.75;99803.25;5003475;28;20421;-78
2021/05/04 01:34:32;;;;;;;28.13;23.85;;;;;;;5.68;82.87;99799.16;4995697;28;20073;-79
2021/05/04 01:36:57;;;;;;;28.65;25.63;;;;;;;5.62;83.54;99787.16;5000450;28;20034;-78
2021/05/04 01:39:33;;;;;;;31.38;25.75;;;;;;;5.58;83.87;99772.41;5003923;28;20037;-78
2021/05/04 01:41:58;;;;;;;28.55;25.15;;;;;;;5.53;84.45;99756.78;4990184;28;20508;-78
2021/05/04 01:44:23;;;;;;;30.73;26.85;;;;;;;5.49;84.66;99758.00;5008614;28;20050;-78
2021/05/04 01:46:49;;;;;;;29.02;26.05;;;;;;;5.47;84.98;99741.28;5000280;28;20113;-78
2021/05/04 01:49:14;;;;;;;29.08;25.98;;;;;;;5.46;85.83;99730.75;4990105;28;20026;-79
2021/05/04 01:51:39;;;;;;;28.92;25.92;;;;;;;5.45;86.03;99719.25;4972197;28;20445;-79
2021/05/04 01:54:05;;;;;;;33.15;28.08;;;;;;;5.42;85.56;99711.50;4993966;28;20022;-78
2021/05/04 01:56:31;;;;;;;36.70;28.40;;;;;;;5.39;86.43;99698.44;4996171;28;20050;-79
2021/05/04 01:59:02;;;;;;;32.92;29.20;;;;;;;5.39;86.01;99686.94;5009393;28;20025;-79
2021/05/04 02:01:28;;;;;;;32.97;28.05;;;;;;;5.40;86.43;99677.94;5009809;28;20402;-79
2021/05/04 02:03:53;;;;;;;31.73;28.33;;;;;;;5.39;87.56;99661.09;5009150;28;20037;-78
2021/05/04 02:06:18;;;;;;;36.42;30.45;;;;;;;5.40;87.88;99657.44;4989119;28;20713;-78
2021/05/04 02:08:44;;;;;;;33.15;29.13;;;;;;;5.38;86.84;99637.22;4990132;28;20560;-78
2021/05/04 02:11:10;;;;;;;33.10;29.48;;;;;;;5.38;87.22;99626.56;4989230;28;20038;-78
2021/05/04 02:13:36;;;;;;;35.85;29.70;;;;;;;5.38;88.06;99622.06;5002310;28;20512;-78
2021/05/04 02:16:01;;;;;;;35.90;32.17;;;;;;;5.39;88.58;99602.44;5006949;28;20026;-78
2021/05/04 02:18:27;;;;;;;35.97;31.58;;;;;;;5.40;87.53;99598.78;4989576;28;20053;-78
2021/05/04 02:20:53;;;;;;;35.30;31.50;;;;;;;5.34;87.86;99585.16;4999799;28;20030;-78
2021/05/04 02:23:18;;;;;;;36.50;31.00;;;;;;;5.33;88.93;99573.66;5009390;28;20030;-78
2021/05/04 02:25:43;;;;;;;35.67;31.88;;;;;;;5.33;89.73;99564.81;4998246;28;20482;-78
2021/05/04 02:28:08;;;;;;;36.15;30.45;;;;;;;5.35;88.81;99555.69;5008312;28;20029;-78
2021/05/04 02:30:34;;;;;;;40.60;32.00;;;;;;;5.34;88.44;99554.00;4994225;28;20026;-79
2021/05/04 02:33:01;;;;;;;33.83;29.92;;;;;;;5.33;88.27;99538.16;4972123;28;20051;-80
2021/05/04 02:35:26;;;;;;;35.30;30.08;;;;;;;5.30;88.79;99532.09;4994283;28;20036;-80
2021/05/04 02:37:52;;;;;;;35.10;31.00;;;;;;;5.29;88.53;99516.22;4996722;28;20033;-79
2021/05/04 02:40:18;;;;;;;35.70;31.40;;;;;;;5.29;88.04;99503.75;4980508;28;20038;-80
2021/05/04 02:42:43;;;;;;;34.08;30.33;;;;;;;5.30;88.77;99499.28;4989556;28;20022;-79
2021/05/04 02:45:09;;;;;;;35.88;31.98;;;;;;;5.29;88.82;99490.44;4989442;28;20422;-79
2021/05/04 02:47:35;;;;;;;35.10;30.10;;;;;;;5.29;89.21;99470.91;4989475;28;20030;-79
2021/05/04 02:50:00;;;;;;;36.45;32.47;;;;;;;5.32;89.05;99464.47;4997721;28;20026;-79
2021/05/04 02:52:26;;;;;;;38.00;30.33;;;;;;;5.26;89.16;99448.06;5008447;28;20371;-79
2021/05/04 02:54:51;;;;;;;37.60;31.88;;;;;;;5.27;89.18;99452.38;5009019;28;20034;-80
2021/05/04 02:57:17;;;;;;;35.35;31.50;;;;;;;5.35;88.90;99440.19;4998495;28;20117;-78
2021/05/04 02:59:43;;;;;;;35.85;31.90;;;;;;;5.29;89.69;99423.78;4977293;28;20057;-79
2021/05/04 03:02:08;;;;;;;35.90;31.95;;;;;;;5.29;89.08;99422.91;4991058;28;20454;-79
2021/05/04 03:04:33;;;;;;;37.65;33.40;;;;;;;5.32;89.04;99421.81;4990621;28;20030;-79
2021/05/04 03:06:59;;;;;;;36.30;32.17;;;;;;;5.28;90.07;99422.09;4993665;28;20032;-79
2021/05/04 03:09:24;;;;;;;37.47;32.15;;;;;;;5.29;90.93;99415.78;5008529;28;20060;-79
2021/05/04 03:11:49;;;;;;;38.47;33.88;;;;;;;5.28;90.15;99406.09;5008910;28;20056;-79
2021/05/04 03:14:15;;;;;;;35.63;31.83;;;;;;;5.26;89.56;99400.06;4990010;28;20038;-79
2021/05/04 03:16:40;;;;;;;36.28;30.75;;;;;;;5.24;90.08;99393.19;4991050;28;20041;-79
2021/05/04 03:19:05;;;;;;;36.78;31.55;;;;;;;5.26;90.02;99388.53;4990301;28;20030;-79
2021/05/04 03:21:31;;;;;;;36.25;31.63;;;;;;;5.24;89.92;99378.03;4994794;28;20428;-79
2021/05/04 03:23:56;;;;;;;35.85;31.48;;;;;;;5.28;90.65;99359.94;4994588;28;20045;-78
2021/05/04 03:26:21;;;;;;;34.05;30.40;;;;;;;5.28;90.82;99351.94;5012038;28;20030;-78
2021/05/04 03:28:47;;;;;;;38.72;31.60;;;;;;;5.24;90.54;99350.53;5010630;28;20045;-79
2021/05/04 03:31:12;;;;;;;36.33;30.65;;;;;;;5.26;90.10;99335.22;4977131;28;20126;-78
2021/05/04 03:33:37;;;;;;;36.97;30.23;;;;;;;5.23;90.38;99330.19;4992850;28;20423;-78
2021/05/04 03:36:03;;;;;;;36.28;31.55;;;;;;;5.23;90.48;99320.38;4975908;28;20030;-78
2021/05/04 03:38:28;;;;;;;35.33;31.25;;;;;;;5.22;90.05;99315.16;4974809;28;20027;-79
2021/05/04 03:40:54;;;;;;;34.78;29.85;;;;;;;5.20;90.32;99315.28;5007101;28;20026;-79
2021/05/04 03:43:19;;;;;;;35.05;29.80;;;;;;;5.21;90.39;99300.16;4998417;28;20034;-79
2021/05/04 03:45:44;;;;;;;34.35;29.70;;;;;;;5.23;89.77;99300.84;4974638;28;20069;-79
2021/05/04 03:48:10;;;;;;;35.72;30.77;;;;;;;5.21;90.58;99282.34;4980592;28;20463;-79
2021/05/04 03:50:35;;;;;;;36.53;30.20;;;;;;;5.21;90.44;99292.19;4984935;28;20062;-79
2021/05/04 03:53:01;;;;;;;33.42;29.92;;;;;;;5.21;90.78;99279.69;4974530;28;20510;-79
2021/05/04 03:55:26;;;;;;;34.92;30.67;;;;;;;5.24;91.03;99274.09;4974480;28;20041;-80
2021/05/04 03:57:52;;;;;;;36.97;30.77;;;;;;;5.23;90.95;99260.88;4975676;28;20034;-80
2021/05/04 04:00:19;;;;;;;33.35;29.40;;;;;;;5.26;91.45;99257.94;5011536;28;20038;-80
2021/05/04 04:02:44;;;;;;;37.22;31.48;;;;;;;5.25;91.67;99253.59;4993846;28;20420;-78
2021/05/04 04:05:10;;;;;;;33.55;29.27;;;;;;;5.25;91.39;99237.59;5011178;28;20112;-78
2021/05/04 04:07:36;;;;;;;37.58;31.85;;;;;;;5.25;91.24;99242.94;4993644;28;20026;-79
2021/05/04 04:10:02;;;;;;;37.92;30.50;;;;;;;5.28;91.12;99229.34;4995087;28;20038;-78
2021/05/04 04:12:28;;;;;;;37.83;30.55;;;;;;;5.27;91.13;99222.31;4991921;28;20093;-79
2021/05/04 04:14:54;;;;;;;34.90;30.10;;;;;;;5.27;91.50;99223.16;4974023;28;20089;-79
2021/05/04 04:17:20;;;;;;;32.15;28.65;;;;;;;5.29;91.50;99202.56;4974276;28;20113;-79
2021/05/04 04:19:45;;;;;;;35.72;30.58;;;;;;;5.29;91.50;99204.34;4992899;28;20030;-79
2021/05/04 04:22:11;;;;;;;36.88;30.52;;;;;;;5.29;91.22;99191.88;4974138;28;20483;-79
2021/05/04 04:24:36;;;;;;;31.25;27.83;;;;;;;5.32;91.67;99179.25;4997089;28;20109;-79
2021/05/04 04:27:01;;;;;;;32.13;28.30;;;;;;;5.34;91.52;99169.28;5000249;28;20038;-78
2021/05/04 04:29:27;;;;;;;34.38;29.88;;;;;;;5.35;90.94;99160.31;4994539;28;20148;-79
2021/05/04 04:31:53;;;;;;;36.53;29.67;;;;;;;5.37;91.94;99161.84;4991758;28;20034;-79
2021/05/04 04:34:18;;;;;;;38.25;31.13;;;;;;;5.40;91.48;99166.91;4975287;28;20034;-79
2021/05/04 04:36:44;;;;;;;34.17;28.95;;;;;;;5.42;90.96;99148.13;4992838;28;20183;-79
2021/05/04 04:39:09;;;;;;;35.75;27.98;;;;;;;5.44;91.00;99144.28;4993417;28;20034;-78
2021/05/04 04:41:40;;;;;;;34.60;28.63;;;;;;;5.44;90.70;99128.28;5009651;28;20045;-78
2021/05/04 04:44:06;;;;;;;34.88;26.83;;;;;;;5.47;90.92;99121.84;4974045;28;20393;-78
2021/05/04 04:46:40;;;;;;;30.58;27.13;;;;;;;5.45;91.04;99111.34;5000846;28;20046;-79
2021/05/04 04:49:10;;;;;;;32.70;29.02;;;;;;;5.45;91.58;99111.34;4991754;28;20109;-78
2021/05/04 04:51:35;;;;;;;33.25;28.25;;;;;;;5.46;91.55;99105.00;5009874;28;20097;-79
2021/05/04 04:54:02;;;;;;;31.60;25.60;;;;;;;5.48;90.84;99086.22;5010999;28;20578;-79
2021/05/04 04:56:28;;;;;;;33.05;26.50;;;;;;;5.48;90.84;99087.06;4973450;28;20044;-78
2021/05/04 04:58:53;;;;;;;31.50;25.70;;;;;;;5.46;90.91;99066.84;4973403;28;20038;-79
2021/05/04 05:01:18;;;;;;;32.35;26.92;;;;;;;5.44;91.51;99072.31;4993185;28;20065;-79
2021/05/04 05:03:44;;;;;;;33.88;28.10;;;;;;;5.45;91.41;99058.03;4974625;28;20076;-79
2021/05/04 05:06:09;;;;;;;33.15;27.85;;;;;;;5.49;90.82;99054.06;4998458;28;20029;-79
2021/05/04 05:08:34;;;;;;;26.85;23.60;;;;;;;5.48;90.47;99043.56;5010338;28;20034;-80
2021/05/04 05:10:59;;;;;;;33.10;25.40;;;;;;;5.44;91.66;99032.31;5009660;28;20022;-79
2021/05/04 05:13:25;;;;;;;31.85;26.33;;;;;;;5.47;91.75;99037.38;5010069;28;20538;-79
2021/05/04 05:15:50;;;;;;;30.60;26.15;;;;;;;5.49;91.47;99031.91;5008400;28;20067;-79
2021/05/04 05:18:15;;;;;;;27.90;23.52;;;;;;;5.49;90.21;99018.56;4996861;28;20034;-79
2021/05/04 05:20:41;;;;;;;31.15;23.73;;;;;;;5.47;90.49;99025.88;5003983;28;20117;-80
2021/05/04 05:23:06;;;;;;;26.80;23.67;;;;;;;5.46;91.07;99017.03;4984721;28;20037;-80
2021/05/04 05:25:32;;;;;;;29.58;24.92;;;;;;;5.46;91.25;99009.03;5010016;28;20058;-79
2021/05/04 05:27:58;;;;;;;28.33;23.88;;;;;;;5.47;91.18;98992.03;4978109;28;20034;-79
2021/05/04 05:30:24;;;;;;;25.00;22.08;;;;;;;5.47;90.15;99001.88;4972909;28;20449;-80
2021/05/04 05:32:49;;;;;;;26.58;21.38;;;;;;;5.47;90.25;99000.03;4973007;28;20061;-80
2021/05/04 05:35:15;;;;;;;30.08;23.90;;;;;;;5.49;91.21;98989.25;4973738;28;20027;-79
2021/05/04 05:37:40;;;;;;;25.60;22.60;;;;;;;5.50;91.52;98980.25;4979835;28;20102;-81
2021/05/04 05:40:06;;;;;;;24.05;21.45;;;;;;;5.56;90.08;98962.81;4989875;28;20043;-81
2021/05/04 05:42:31;;;;;;;25.95;23.23;;;;;;;5.51;91.07;98969.44;5005441;28;20065;-81
2021/05/04 05:44:57;;;;;;;25.92;21.73;;;;;;;5.53;90.44;98969.28;4998087;28;20467;-80
2021/05/04 05:47:22;;;;;;;21.00;18.90;;;;;;;5.49;90.40;98960.75;4998749;28;20553;-81
2021/05/04 05:49:48;;;;;;;26.27;23.30;;;;;;;5.49;91.19;98951.91;4991196;28;20537;-80
2021/05/04 05:52:13;;;;;;;27.52;22.15;;;;;;;5.53;91.38;98932.78;5003343;28;20065;-80
2021/05/04 05:54:38;;;;;;;21.92;19.00;;;;;;;5.58;89.87;98936.88;4998349;28;20478;-81
2021/05/04 05:57:04;;;;;;;25.67;21.50;;;;;;;5.68;90.86;98918.97;5006884;28;20559;-80
2021/05/04 05:59:30;;;;;;;21.38;18.95;;;;;;;5.77;89.15;98915.41;4996474;28;20061;-81
2021/05/04 06:01:55;;;;;;;26.30;20.40;;;;;;;5.80;90.20;98892.94;5009232;28;20034;-81
2021/05/04 06:04:20;;;;;;;21.00;18.67;;;;;;;5.79;89.70;98884.09;5004665;28;20026;-82
2021/05/04 06:06:46;;;;;;;19.55;17.52;;;;;;;5.80;89.28;98874.25;4990192;28;20026;-81
2021/05/04 06:09:11;;;;;;;21.83;19.67;;;;;;;5.85;89.84;98872.00;4992845;28;20084;-81
2021/05/04 06:11:36;;;;;;;21.27;19.00;;;;;;;5.84;89.91;98860.47;4990002;28;20049;-81
2021/05/04 06:14:02;;;;;;;22.60;19.30;;;;;;;5.86;90.37;98854.97;4989858;28;20161;-80
2021/05/04 06:16:28;;;;;;;19.25;17.20;;;;;;;5.92;89.36;98851.72;4989727;28;20034;-80
2021/05/04 06:18:54;;;;;;;23.27;19.42;;;;;;;5.90;90.00;98835.84;4983622;28;20425;-81
2021/05/04 06:21:19;;;;;;;22.92;16.95;;;;;;;5.95;89.16;98830.09;5009354;28;20034;-80
2021/05/04 06:23:45;;;;;;;20.02;17.98;;;;;;;6.05;89.20;98824.66;5009510;28;20113;-81
2021/05/04 06:26:10;;;;;;;19.58;16.95;;;;;;;6.24;88.77;98826.31;5008951;28;20087;-81
2021/05/04 06:28:35;;;;;;;18.27;16.33;;;;;;;6.45;88.17;98824.13;4989957;28;20129;-80
2021/05/04 06:31:02;;;;;;;17.80;15.90;;;;;;;6.43;87.76;98807.44;5012826;28;20030;-81
2021/05/04 06:33:28;;;;;;;20.75;15.90;;;;;;;6.44;88.54;98809.13;5000941;28;20092;-81
2021/05/04 06:35:54;;;;;;;17.90;16.20;;;;;;;6.47;87.29;98799.97;5009081;28;20034;-81
2021/05/04 06:38:19;;;;;;;18.65;15.95;;;;;;;6.44;87.60;98798.44;5007394;28;20033;-80
2021/05/04 06:40:46;;;;;;;18.60;15.52;;;;;;;6.39;88.21;98792.72;5008140;28;20076;-81
2021/05/04 06:43:12;;;;;;;17.23;15.43;;;;;;;6.29;88.39;98786.66;4991328;28;20063;-81
2021/05/04 06:45:38;;;;;;;17.50;14.93;;;;;;;6.33;89.39;98786.16;5009598;28;20030;-80
2021/05/04 06:48:04;;;;;;;21.40;16.50;;;;;;;6.37;89.07;98784.88;5009691;28;20468;-80
2021/05/04 06:50:30;;;;;;;18.85;15.93;;;;;;;6.31;89.15;98760.66;5007362;28;20030;-81
2021/05/04 06:52:55;;;;;;;17.25;15.48;;;;;;;6.25;89.12;98746.09;5011941;28;20033;-80
2021/05/04 06:55:21;;;;;;;19.02;15.90;;;;;;;6.28;90.58;98758.28;4991875;28;20073;-81
2021/05/04 06:57:46;;;;;;;24.02;15.52;;;;;;;6.24;89.40;98747.06;5005757;28;20030;-81
2021/05/04 07:00:13;;;;;;;19.45;16.83;;;;;;;6.14;90.42;98730.34;4995781;28;20076;-81
2021/05/04 07:02:38;;;;;;;22.58;17.83;;;;;;;6.09;91.13;98728.16;5012715;28;20038;-80
2021/05/04 07:05:05;;;;;;;19.65;17.42;;;;;;;6.10;91.11;98726.31;5012530;28;20052;-81
2021/05/04 07:07:30;;;;;;;20.42;17.77;;;;;;;6.12;90.97;98722.50;5012941;28;20033;-81
2021/05/04 07:09:56;;;;;;;21.98;18.15;;;;;;;6.23;91.08;98716.03;5002935;28;20033;-81
2021/05/04 07:12:21;;;;;;;20.90;18.55;;;;;;;6.35;91.12;98713.94;4975941;28;20505;-80
2021/05/04 07:14:47;;;;;;;26.13;18.33;;;;;;;6.43;89.63;98714.84;4992923;28;20068;-80
2021/05/04 07:17:12;;;;;;;26.98;19.95;;;;;;;6.45;91.06;98709.31;4993434;28;20042;-81
2021/05/04 07:19:39;;;;;;;20.80;18.48;;;;;;;6.42;90.77;98710.47;4993315;28;20897;-80
2021/05/04 07:22:10;;;;;;;23.52;18.30;;;;;;;6.44;91.94;98702.31;4979836;28;20540;-80
2021/05/04 07:24:37;;;;;;;21.00;18.73;;;;;;;6.35;91.30;98688.09;4993774;28;20493;-79
2021/05/04 07:27:03;;;;;;;18.27;16.13;;;;;;;6.32;90.91;98682.22;4992741;28;20039;-80
2021/05/04 07:29:28;;;;;;;21.88;16.73;;;;;;;6.30;91.51;98689.53;4992686;28;20037;-80
2021/05/04 07:31:53;;;;;;;21.23;17.23;;;;;;;6.31;92.33;98689.41;4990126;28;20025;-80
2021/05/04 07:34:19;;;;;;;20.52;17.13;;;;;;;6.34;91.70;98678.41;5012755;28;20026;-79
2021/05/04 07:36:44;;;;;;;26.48;18.42;;;;;;;6.40;91.74;98674.28;4994333;28;20060;-78
2021/05/04 07:39:10;;;;;;;23.88;19.95;;;;;;;6.39;92.05;98667.25;4999807;28;20026;-79
2021/05/04 07:41:35;;;;;;;19.25;17.10;;;;;;;6.39;92.20;98667.25;4974320;28;20121;-79
2021/05/04 07:44:01;;;;;;;18.63;16.65;;;;;;;6.37;92.56;98672.75;4992581;28;20488;-79
2021/05/04 07:46:27;;;;;;;20.30;17.63;;;;;;;6.37;92.69;98659.41;4974519;28;20031;-79
2021/05/04 07:48:54;;;;;;;21.73;18.92;;;;;;;6.44;92.52;98654.25;4993686;28;20579;-79
2021/05/04 07:51:19;;;;;;;23.10;18.60;;;;;;;6.61;92.40;98641.78;4992002;28;20061;-79
2021/05/04 07:53:45;;;;;;;18.77;15.48;;;;;;;6.81;90.98;98653.88;5010181;28;20029;-78
2021/05/04 07:56:11;;;;;;;18.38;16.52;;;;;;;7.05;91.50;98636.22;5012708;28;20045;-78
2021/05/04 07:58:36;;;;;;;18.83;15.35;;;;;;;7.19;90.37;98632.88;4991287;28;20037;-78
2021/05/04 08:01:02;;;;;;;18.05;16.25;;;;;;;7.47;91.13;98636.09;4974580;28;20441;-78
2021/05/04 08:03:28;;;;;;;17.65;14.68;;;;;;;7.57;89.49;98622.53;4992299;28;20033;-76
2021/05/04 08:05:54;;;;;;;16.00;14.40;;;;;;;7.69;87.99;98629.22;4991865;28;20045;-78
2021/05/04 08:08:19;;;;;;;14.55;13.13;;;;;;;7.68;87.67;98627.53;4973331;28;20442;-79
2021/05/04 08:10:44;;;;;;;13.63;12.25;;;;;;;7.59;88.71;98620.50;4993627;28;20026;-79
2021/05/04 08:13:10;;;;;;;14.05;12.63;;;;;;;7.55;89.30;98612.00;4993067;28;20038;-78
2021/05/04 08:15:36;;;;;;;19.25;13.52;;;;;;;7.49;89.83;98607.31;4993543;28;20481;-78
2021/05/04 08:18:05;;;;;;;14.35;12.63;;;;;;;7.33;89.71;98605.50;5011746;28;20496;-82
2021/05/04 08:20:32;;;;;;;14.93;12.73;;;;;;;7.16;90.24;98611.00;5011428;28;20030;-76
2021/05/04 08:22:59;;;;;;;13.95;12.15;;;;;;;7.08;90.95;98610.00;5011425;28;20156;-79
2021/05/04 08:25:25;;;;;;;13.15;11.18;;;;;;;7.04;91.00;98602.47;4994447;28;20026;-79
2021/05/04 08:27:51;;;;;;;14.52;12.45;;;;;;;7.07;90.87;98597.66;4999506;28;20509;-80
2021/05/04 08:30:17;;;;;;;16.33;13.93;;;;;;;7.11;92.91;98598.97;5000833;28;20038;-79
2021/05/04 08:32:42;;;;;;;19.75;13.45;;;;;;;7.08;92.01;98598.47;4974709;28;20034;-80
2021/05/04 08:35:08;;;;;;;20.75;13.13;;;;;;;7.20;92.28;98590.97;4974157;28;20022;-79
2021/05/04 08:37:34;;;;;;;13.95;11.82;;;;;;;7.17;91.61;98581.44;4996332;28;20038;-80
2021/05/04 08:39:59;;;;;;;13.38;11.23;;;;;;;7.04;90.99;98587.28;4978905;28;20030;-79
2021/05/04 08:42:24;;;;;;;12.98;11.35;;;;;;;6.99;91.75;98576.25;4992764;28;20038;-79
2021/05/04 08:44:52;;;;;;;12.43;10.98;;;;;;;6.99;92.19;98573.56;5000495;28;20034;-79
2021/05/04 08:47:22;;;;;;;11.70;10.60;;;;;;;7.11;91.30;98569.56;4992676;28;20049;-79
2021/05/04 08:49:48;;;;;;;12.30;11.18;;;;;;;7.11;91.34;98574.91;4992878;28;20449;-78
2021/05/04 08:52:16;;;;;;;14.10;10.93;;;;;;;7.16;90.31;98569.06;5010354;28;20056;-79
2021/05/04 08:54:41;;;;;;;12.23;10.95;;;;;;;7.31;90.59;98574.56;5008963;28;20033;-80
2021/05/04 08:57:06;;;;;;;15.00;9.40;;;;;;;7.42;89.39;98560.03;5010554;28;20100;-79
2021/05/04 08:59:32;;;;;;;14.07;10.32;;;;;;;7.40;88.72;98567.38;4991673;28;20049;-79
2021/05/04 09:01:58;;;;;;;11.65;10.50;;;;;;;7.46;90.56;98564.88;5006914;28;20474;-79
2021/05/04 09:04:37;;;;;;;11.73;10.25;;;;;;;7.36;90.50;98554.34;4992799;28;20041;-79
2021/05/04 09:07:26;;;;;;;11.75;10.65;;;;;;;7.58;89.00;98555.47;5009695;28;20480;-78
2021/05/04 09:10:42;;;;;;;10.65;9.27;;;;;;;7.80;87.62;98559.25;4992581;28;20506;-79
2021/05/04 09:13:11;;;;;;;9.60;8.75;;;;;;;7.76;87.91;98562.47;4999116;28;20045;-78
2021/05/04 09:21:28;;;;;;;14.55;10.30;;;;;;;7.69;89.27;98538.25;5012111;28;20436;-79
2021/05/04 09:23:53;;;;;;;12.73;11.53;;;;;;;7.86;89.60;98541.69;5012212;28;20026;-79
2021/05/04 09:26:21;;;;;;;15.55;12.13;;;;;;;8.05;89.59;98540.47;4994670;28;20279;-79
2021/05/04 09:28:50;;;;;;;13.77;10.50;;;;;;;8.01;89.64;98541.81;4993962;28;20061;-80
2021/05/04 09:31:27;;;;;;;13.63;12.25;;;;;;;7.91;89.20;98535.84;5012203;28;20079;-79
2021/05/04 09:33:55;;;;;;;17.55;11.77;;;;;;;8.02;90.27;98532.78;4994275;28;20033;-79
2021/05/04 09:36:38;;;;;;;12.18;9.57;;;;;;;7.89;90.00;98540.53;5011844;28;20089;-79
2021/05/04 09:39:05;;;;;;;11.27;10.18;;;;;;;7.94;90.43;98535.50;5012099;28;20462;-78
2021/05/04 09:41:31;;;;;;;13.27;11.98;;;;;;;7.99;90.62;98544.69;5012222;28;20118;-78
2021/05/04 09:43:56;;;;;;;15.32;11.70;;;;;;;8.00;89.35;98532.13;5011649;28;20101;-78
2021/05/04 09:46:42;;;;;;;14.75;10.98;;;;;;;7.95;90.35;98535.31;4994287;28;20030;-78
2021/05/04 09:49:27;;;;;;;12.40;11.20;;;;;;;7.90;90.22;98524.31;5012029;28;20560;-78
2021/05/04 09:51:55;;;;;;;13.90;11.27;;;;;;;7.86;90.68;98525.63;5011903;28;20121;-79
2021/05/04 09:54:31;;;;;;;12.68;11.52;;;;;;;8.02;91.24;98522.09;4996727;28;20061;-79
2021/05/04 09:56:56;;;;;;;14.07;10.65;;;;;;;8.27;88.63;98517.44;5013562;28;20077;-79
2021/05/04 09:59:23;;;;;;;13.95;10.30;;;;;;;8.86;86.67;98511.56;5014033;28;20502;-79
2021/05/04 10:01:50;;;;;;;10.50;9.40;;;;;;;9.18;86.19;98507.75;5014033;28;20026;-79
2021/05/04 10:04:18;;;;;;;9.30;7.63;;;;;;;9.39;84.25;98507.06;4994762;28;20499;-79
2021/05/04 10:06:43;;;;;;;9.40;6.70;;;;;;;9.22;84.33;98510.94;4995094;28;20065;-79
2021/05/04 10:09:09;;;;;;;13.70;7.50;;;;;;;9.13;84.32;98504.81;5013165;28;20441;-79
2021/05/04 10:11:35;;;;;;;7.68;5.65;;;;;;;8.70;85.68;98507.16;4995017;28;20540;-75
2021/05/04 10:14:00;;;;;;;10.30;5.95;;;;;;;8.61;86.22;98489.47;4994877;28;20049;-79
2021/05/04 10:16:30;;;;;;;9.48;5.90;;;;;;;8.51;86.84;98495.91;4993454;28;20064;-79
2021/05/04 10:18:58;;;;;;;10.27;5.95;;;;;;;8.54;85.92;98491.19;4994417;28;20037;-80
2021/05/04 10:21:25;;;;;;;7.93;6.30;;;;;;;8.40;86.68;98493.63;4993681;28;20490;-79
2021/05/04 10:23:51;;;;;;;7.07;6.28;;;;;;;8.22;86.71;98493.84;5011296;28;20033;-80
2021/05/04 10:26:19;;;;;;;12.70;7.22;;;;;;;8.26;89.32;98491.66;4993364;28;20028;-79
2021/05/04 10:28:51;;;;;;;11.60;6.97;;;;;;;8.27;89.11;98488.00;4997967;28;20097;-80
2021/05/04 10:31:18;;;;;;;11.68;7.70;;;;;;;8.38;88.71;98495.63;5016810;28;20037;-81
2021/05/04 10:33:44;;;;;;;13.77;7.78;;;;;;;8.39;88.43;98501.84;5014634;28;20048;-80
2021/05/04 10:36:33;;;;;;;9.95;7.57;;;;;;;8.10;88.97;98479.19;5013622;28;20092;-79
2021/05/04 10:38:59;;;;;;;11.77;8.13;;;;;;;8.13;90.82;98476.16;4991941;28;20061;-79
2021/05/04 10:41:25;;;;;;;12.63;9.07;;;;;;;8.41;91.57;98481.06;5011807;28;20056;-79
2021/05/04 10:44:02;;;;;;;13.60;9.38;;;;;;;8.49;89.74;98481.00;5011794;28;20030;-79
2021/05/04 10:46:42;;;;;;;13.75;8.90;;;;;;;8.54;88.31;98481.31;5012183;28;20583;-76
2021/05/04 10:49:15;;;;;;;15.73;9.02;;;;;;;8.67;88.82;98476.19;5011398;28;20117;-85
2021/05/04 10:51:47;;;;;;;12.55;8.80;;;;;;;8.74;89.55;98463.72;5011678;28;20021;-79
2021/05/04 10:54:16;;;;;;;14.18;9.07;;;;;;;9.05;87.51;98465.47;4993167;28;20040;-80
2021/05/04 10:57:02;;;;;;;12.55;8.05;;;;;;;8.84;87.39;98458.13;5013022;28;20062;-80
2021/05/04 10:59:27;;;;;;;10.65;8.10;;;;;;;9.08;86.82;98459.75;4994468;28;20041;-80
2021/05/04 11:02:10;;;;;;;13.90;9.20;;;;;;;8.99;85.95;98452.78;5010891;28;20033;-80
2021/05/04 11:04:40;;;;;;;13.80;7.28;;;;;;;8.64;87.82;98470.38;5010782;28;20733;-80
2021/05/04 11:07:05;;;;;;;24.75;8.10;;;;;;;8.57;89.02;98464.03;5011230;28;20038;-80
2021/05/04 11:09:31;;;;;;;15.55;7.43;;;;;;;8.30;91.72;98476.94;5012424;28;20045;-79
2021/05/04 11:11:57;;;;;;;17.33;7.65;;;;;;;8.51;90.85;98479.81;5012600;28;20041;-80
2021/05/04 11:14:25;;;;;;;21.00;6.68;;;;;;;9.09;89.06;98482.03;4993383;28;20096;-80
2021/05/04 11:16:53;;;;;;;10.75;4.57;;;;;;;8.85;85.37;98486.59;4997417;28;20049;-80
2021/05/04 11:19:39;;;;;;;18.35;4.03;;;;;;;8.61;86.59;98516.25;5014317;28;20041;-80
2021/05/04 11:22:11;;;;;;;14.07;3.65;;;;;;;8.28;88.42;98473.56;5012775;28;20568;-80
2021/05/04 11:24:42;;;;;;;13.90;4.30;;;;;;;8.42;85.70;98474.72;5011135;28;20033;-78
2021/05/04 11:27:07;;;;;;;18.92;3.97;;;;;;;8.87;83.95;98476.53;4993480;28;20558;-78
2021/05/04 11:29:33;;;;;;;9.38;3.35;;;;;;;9.59;80.69;98467.13;5011585;28;20449;-79
2021/05/04 11:32:10;;;;;;;20.40;4.28;;;;;;;9.87;79.48;98464.59;5011214;28;20022;-80